Pagrindinis puslapis
METAR-TAF:

METAR-TAF

Oro uostai :

Žešuvas, Lenkija

platuma: 50-06N, ilguma: 022-03E, Aukštis: 200 m

Dabartinis oras

Ataskaita buvo paskelbta 36 minutes, ne 09:00 UTC
Vėjas 8 kt iš Pietų/Pietvakarių
Temperatūra 17°C
Drėgmė 63%
Slėgis 1017 hPa
Matomumas 10 km arba daugiau
nėra debesų žemiau 1500 m ir nėra kamuolinių lietaus debesų

METAR: EPRZ 180900Z 21008KT CAVOK 17/10 Q1017

Laikas: 11:36 (09:36 UTC)

Prognozė

Ataskaita buvo paskelbta 4 valandos ir 6 minutes, ne 05:30 UTC
Prognozė galioja nuo 18 metu 06 UTC su 19 metu 06 UTC
Vėjas 4 kt iš Pietų/Pietryčių
Matomumas 10 km arba daugiau
nėra debesų žemiau 1500 m ir nėra kamuolinių lietaus debesų
Tikimybė 30% :
Laikinai
nuo 18 metu 06 UTC su 18 metu 07 UTC
Matomumas: 3000 m
rūkana

TAF: EPRZ 180530Z 1806/1906 16004KT CAVOK PROB30 TEMPO 1806/1807 3000 BR

Orai ataskaitas ir orų prognozės (METAR, TAF).

turimą stotys yra geltonos ir raudonos taškus žemėlapyje.

Perkelti pele per norėdami pamatyti stoties vardą.

Tada spustelėkite, norėdami matyti oro stebėjimo ir prognozės.

Norėdami pakeisti žemėlapį: spustelėkite ant žalios mygtukų su juodo kryžiaus žemyn,; žalią mygtuką su brūkšneliu, jei norite nutolinti; arba žalių rodyklių gretimoms žemėlapius.


METAR-TAF: